Time;durP1;ratioP1;P1;durP2;ratioP2;P2;SDS_P1;SDS_P2;PMS_P1;PMS_P2;Temp;Humidity;BMP_temperature;BMP_pressure;BME280_temperature;BME280_humidity;BME280_pressure;Samples;Min_cycle;Max_cycle;Signal;HPM_P1;HPM_P2
2022/02/22 00:01:48;;;;;;;3.05;1.25;;;;;;;;;;5056037;28;20131;-70
2022/02/22 00:04:26;;;;;;;3.97;1.90;;;;;;;;;;5055407;28;20041;-70
2022/02/22 00:06:55;;;;;;;3.88;1.77;;;;;;;;;;5057869;28;20509;-69
2022/02/22 00:09:21;;;;;;;4.95;2.25;;;;;;;;;;5055772;28;20589;-69
2022/02/22 00:11:55;;;;;;;3.03;2.00;;;;;;;;;;5055785;28;20599;-69
2022/02/22 00:14:21;;;;;;;3.33;1.73;;;;;;;;;;5056054;28;20987;-69
2022/02/22 00:16:48;;;;;;;2.60;1.52;;;;;;;;;;5055611;28;20052;-69
2022/02/22 00:19:14;;;;;;;3.35;1.33;;;;;;;;;;5056364;28;20406;-69
2022/02/22 00:21:43;;;;;;;3.22;1.75;;;;;;;;;;5056043;28;20044;-69
2022/02/22 00:24:09;;;;;;;4.30;2.03;;;;;;;;;;5057130;28;20414;-69
2022/02/22 00:26:36;;;;;;;4.70;1.73;;;;;;;;;;5041240;28;20140;-70
2022/02/22 00:29:03;;;;;;;2.88;1.38;;;;;;;;;;5055042;28;20175;-72
2022/02/22 00:31:29;;;;;;;3.55;1.33;;;;;;;;;;5057335;28;20080;-71
2022/02/22 00:33:56;;;;;;;4.72;2.08;;;;;;;;;;5056551;28;20055;-71
2022/02/22 00:36:22;;;;;;;3.22;1.90;;;;;;;;;;5059588;28;20095;-71
2022/02/22 00:38:49;;;;;;;6.88;2.08;;;;;;;;;;5059494;28;20170;-71
2022/02/22 00:41:23;;;;;;;4.50;2.13;;;;;;;;;;5058051;28;20132;-71
2022/02/22 00:43:50;;;;;;;2.45;1.90;;;;;;;;;;5060033;28;20496;-71
2022/02/22 00:46:16;;;;;;;3.55;2.22;;;;;;;;;;5060559;28;20057;-71
2022/02/22 00:48:43;;;;;;;6.57;1.65;;;;;;;;;;5057430;28;20140;-71
2022/02/22 00:51:10;;;;;;;3.95;2.20;;;;;;;;;;5054542;28;20131;-71
2022/02/22 00:53:36;;;;;;;5.67;1.80;;;;;;;;;;5057835;28;20076;-71
2022/02/22 00:56:03;;;;;;;3.60;2.10;;;;;;;;;;5056309;28;20328;-71
2022/02/22 00:58:29;;;;;;;7.78;2.20;;;;;;;;;;5055555;28;20052;-71
2022/02/22 01:00:56;;;;;;;5.00;1.95;;;;;;;;;;5055333;28;20084;-71
2022/02/22 01:03:29;;;;;;;3.27;2.10;;;;;;;;;;5056990;28;20048;-70
2022/02/22 01:05:55;;;;;;;3.57;2.03;;;;;;;;;;5058940;28;20167;-71
2022/02/22 01:08:22;;;;;;;3.55;1.65;;;;;;;;;;5039959;28;20299;-71
2022/02/22 01:10:56;;;;;;;3.97;2.00;;;;;;;;;;5060597;28;20167;-71
2022/02/22 01:13:23;;;;;;;5.10;1.73;;;;;;;;;;5059898;28;20128;-70
2022/02/22 01:15:50;;;;;;;3.17;1.88;;;;;;;;;;5062092;28;20067;-71
2022/02/22 01:18:17;;;;;;;4.80;2.10;;;;;;;;;;5061288;28;20164;-71
2022/02/22 01:20:43;;;;;;;3.03;1.57;;;;;;;;;;5060305;28;20040;-71
2022/02/22 01:23:10;;;;;;;3.42;1.90;;;;;;;;;;5061295;28;20861;-71
2022/02/22 01:25:43;;;;;;;4.60;2.20;;;;;;;;;;5059437;28;20132;-70
2022/02/22 01:28:09;;;;;;;4.20;1.80;;;;;;;;;;5064010;28;20087;-71
2022/02/22 01:30:36;;;;;;;4.05;2.40;;;;;;;;;;5060874;28;20127;-70
2022/02/22 01:33:05;;;;;;;6.15;2.35;;;;;;;;;;5058430;28;20714;-71
2022/02/22 01:35:37;;;;;;;4.40;2.30;;;;;;;;;;5059524;28;20064;-71
2022/02/22 01:38:03;;;;;;;3.47;1.80;;;;;;;;;;5060921;28;20063;-70
2022/02/22 01:40:30;;;;;;;8.07;1.73;;;;;;;;;;5058562;28;20303;-71
2022/02/22 01:42:57;;;;;;;7.28;2.40;;;;;;;;;;5059788;28;20140;-71
2022/02/22 01:45:23;;;;;;;4.57;2.42;;;;;;;;;;5063284;28;20152;-71
2022/02/22 01:47:50;;;;;;;4.25;2.22;;;;;;;;;;5066477;28;20052;-71
2022/02/22 01:50:17;;;;;;;4.47;2.20;;;;;;;;;;5055323;28;20045;-71
2022/02/22 01:52:43;;;;;;;4.47;2.33;;;;;;;;;;5046015;28;20139;-71
2022/02/22 01:55:18;;;;;;;5.97;2.40;;;;;;;;;;5058941;28;20390;-71
2022/02/22 01:57:45;;;;;;;4.97;2.47;;;;;;;;;;5059523;28;20148;-75
2022/02/22 02:00:12;;;;;;;;;;;;;;;;;;5058990;28;20127;-71
2022/02/22 02:02:40;;;;;;;4.10;2.00;;;;;;;;;;5056709;28;20404;-70
2022/02/22 02:05:06;;;;;;;4.18;2.10;;;;;;;;;;5059307;28;20135;-70
2022/02/22 02:07:33;;;;;;;10.10;2.40;;;;;;;;;;5059423;28;20052;-71
2022/02/22 02:10:06;;;;;;;4.33;2.37;;;;;;;;;;5059442;28;20178;-71
2022/02/22 02:12:36;;;;;;;2.75;1.92;;;;;;;;;;5058112;28;20076;-71
2022/02/22 02:15:03;;;;;;;3.33;2.03;;;;;;;;;;5059194;28;20176;-71
2022/02/22 02:17:31;;;;;;;3.47;2.20;;;;;;;;;;5064046;28;20548;-70
2022/02/22 02:19:58;;;;;;;6.87;2.50;;;;;;;;;;5061813;28;20049;-70
2022/02/22 02:22:24;;;;;;;6.97;2.13;;;;;;;;;;5058636;28;20095;-71
2022/02/22 02:24:51;;;;;;;5.63;1.88;;;;;;;;;;5058462;28;21462;-71
2022/02/22 02:27:18;;;;;;;3.35;2.15;;;;;;;;;;5062484;28;20088;-71
2022/02/22 02:29:45;;;;;;;3.25;2.05;;;;;;;;;;5058940;28;20227;-71
2022/02/22 02:32:12;;;;;;;4.60;2.15;;;;;;;;;;5061791;28;20084;-71
2022/02/22 02:34:38;;;;;;;3.70;1.92;;;;;;;;;;5062518;28;20087;-70
2022/02/22 02:37:05;;;;;;;6.30;1.80;;;;;;;;;;5061472;28;20139;-71
2022/02/22 02:39:34;;;;;;;6.40;2.17;;;;;;;;;;5059272;28;20381;-70
2022/02/22 02:42:01;;;;;;;5.30;1.58;;;;;;;;;;5059834;28;20076;-71
2022/02/22 02:44:28;;;;;;;3.80;2.10;;;;;;;;;;5059214;28;20143;-71
2022/02/22 02:46:55;;;;;;;7.70;2.05;;;;;;;;;;5060020;28;20045;-71
2022/02/22 02:49:23;;;;;;;4.07;2.13;;;;;;;;;;5060051;28;20055;-71
2022/02/22 02:51:49;;;;;;;6.07;2.30;;;;;;;;;;5059608;28;20620;-71
2022/02/22 02:54:24;;;;;;;3.23;1.77;;;;;;;;;;5062617;28;20288;-71
2022/02/22 02:56:50;;;;;;;4.97;1.97;;;;;;;;;;5056802;28;20123;-70
2022/02/22 02:59:22;;;;;;;6.20;2.17;;;;;;;;;;5060695;28;20302;-71
2022/02/22 03:01:55;;;;;;;3.80;2.27;;;;;;;;;;5062712;28;20135;-71
2022/02/22 03:04:21;;;;;;;3.45;1.83;;;;;;;;;;5060373;28;20581;-70
2022/02/22 03:06:47;;;;;;;4.60;2.07;;;;;;;;;;5060197;28;20087;-70
2022/02/22 03:09:21;;;;;;;2.60;2.10;;;;;;;;;;5057693;28;20049;-70
2022/02/22 03:11:48;;;;;;;3.05;1.92;;;;;;;;;;5059096;28;20467;-71
2022/02/22 03:14:15;;;;;;;;;;;;;;;;;;5057646;28;20052;-71
2022/02/22 03:16:41;;;;;;;5.10;2.07;;;;;;;;;;5059006;28;20464;-71
2022/02/22 03:19:08;;;;;;;2.27;1.53;;;;;;;;;;5054585;28;20076;-71
2022/02/22 03:21:34;;;;;;;2.83;1.48;;;;;;;;;;5058265;28;20358;-71
2022/02/22 03:24:05;;;;;;;5.13;2.07;;;;;;;;;;5062216;28;20530;-71
2022/02/22 03:26:33;;;;;;;3.13;2.07;;;;;;;;;;5057389;28;20151;-71
2022/02/22 03:28:59;;;;;;;6.50;2.43;;;;;;;;;;5060899;28;20603;-71
2022/02/22 03:31:27;;;;;;;4.93;1.90;;;;;;;;;;5062271;28;20303;-71
2022/02/22 03:33:53;;;;;;;7.18;2.35;;;;;;;;;;5058013;28;20135;-71
2022/02/22 03:36:20;;;;;;;6.80;2.83;;;;;;;;;;5060125;28;20072;-71
2022/02/22 03:38:51;;;;;;;4.47;2.33;;;;;;;;;;5058400;28;20116;-71
2022/02/22 03:41:17;;;;;;;5.28;1.63;;;;;;;;;;5059762;28;20075;-71
2022/02/22 03:43:44;;;;;;;2.72;1.60;;;;;;;;;;5059959;28;20452;-71
2022/02/22 03:46:11;;;;;;;2.97;2.00;;;;;;;;;;5058766;28;20064;-71
2022/02/22 03:48:38;;;;;;;4.50;1.88;;;;;;;;;;5061381;28;20053;-70
2022/02/22 03:51:05;;;;;;;11.27;2.92;;;;;;;;;;5058467;28;20144;-71
2022/02/22 03:53:33;;;;;;;3.30;2.10;;;;;;;;;;5058728;28;20132;-71
2022/02/22 03:55:59;;;;;;;3.72;1.85;;;;;;;;;;5059370;28;20044;-71
2022/02/22 03:58:26;;;;;;;5.43;1.88;;;;;;;;;;5057815;28;20152;-70
2022/02/22 04:00:53;;;;;;;3.28;1.95;;;;;;;;;;5058230;28;20643;-71
2022/02/22 04:03:19;;;;;;;2.97;1.77;;;;;;;;;;5056240;28;20087;-71
2022/02/22 04:05:46;;;;;;;1.73;1.30;;;;;;;;;;5059053;28;20083;-71
2022/02/22 04:08:13;;;;;;;2.33;1.83;;;;;;;;;;5056658;28;20136;-71
2022/02/22 04:10:39;;;;;;;2.03;1.40;;;;;;;;;;5058106;28;20057;-71
2022/02/22 04:13:06;;;;;;;3.78;1.70;;;;;;;;;;5058250;28;20052;-71
2022/02/22 04:15:36;;;;;;;5.37;1.80;;;;;;;;;;5059728;28;20053;-71
2022/02/22 04:18:02;;;;;;;3.15;1.70;;;;;;;;;;5058258;28;20139;-71
2022/02/22 04:20:29;;;;;;;3.47;1.60;;;;;;;;;;5061677;28;20079;-71
2022/02/22 04:22:57;;;;;;;10.60;2.83;;;;;;;;;;5057028;28;20338;-71
2022/02/22 04:25:23;;;;;;;2.85;1.45;;;;;;;;;;5056841;28;20053;-71
2022/02/22 04:27:50;;;;;;;3.60;1.67;;;;;;;;;;5058298;28;20119;-71
2022/02/22 04:30:24;;;;;;;3.43;1.93;;;;;;;;;;5057821;28;20586;-71
2022/02/22 04:32:50;;;;;;;3.85;1.73;;;;;;;;;;5057647;28;20430;-71
2022/02/22 04:35:17;;;;;;;1.98;1.50;;;;;;;;;;5058163;28;20159;-71
2022/02/22 04:37:46;;;;;;;3.63;1.83;;;;;;;;;;5056988;28;20107;-71
2022/02/22 04:40:12;;;;;;;4.47;1.70;;;;;;;;;;5056183;28;20103;-71
2022/02/22 04:42:39;;;;;;;3.33;1.77;;;;;;;;;;5056211;28;20081;-70
2022/02/22 04:45:06;;;;;;;6.22;1.92;;;;;;;;;;5054359;28;20132;-71
2022/02/22 04:47:32;;;;;;;3.55;1.98;;;;;;;;;;5057542;28;20072;-71
2022/02/22 04:50:02;;;;;;;6.83;2.13;;;;;;;;;;5056274;28;20151;-70
2022/02/22 04:52:29;;;;;;;3.78;1.50;;;;;;;;;;5055963;28;20073;-71
2022/02/22 04:54:56;;;;;;;6.82;2.53;;;;;;;;;;5055942;28;20408;-71
2022/02/22 04:57:22;;;;;;;1.60;1.10;;;;;;;;;;5055408;28;20127;-71
2022/02/22 04:59:57;;;;;;;4.53;1.87;;;;;;;;;;5057268;28;20135;-71
2022/02/22 05:02:24;;;;;;;3.03;1.60;;;;;;;;;;5055899;28;20045;-71
2022/02/22 05:04:50;;;;;;;5.17;1.60;;;;;;;;;;5059562;28;20053;-71
2022/02/22 05:07:17;;;;;;;2.47;1.80;;;;;;;;;;5060524;28;20348;-71
2022/02/22 05:09:43;;;;;;;2.42;1.40;;;;;;;;;;5054559;28;20070;-70
2022/02/22 05:12:10;;;;;;;5.57;1.87;;;;;;;;;;5053569;28;20789;-70
2022/02/22 05:14:38;;;;;;;3.47;1.60;;;;;;;;;;5057642;28;20088;-71
2022/02/22 05:17:05;;;;;;;2.60;1.70;;;;;;;;;;5057031;28;20139;-71
2022/02/22 05:19:31;;;;;;;4.18;2.30;;;;;;;;;;5056473;28;20084;-70
2022/02/22 05:21:58;;;;;;;2.88;1.30;;;;;;;;;;5058089;28;20052;-71
2022/02/22 05:24:24;;;;;;;4.25;1.73;;;;;;;;;;5056990;28;20127;-71
2022/02/22 05:26:51;;;;;;;2.08;1.40;;;;;;;;;;5056787;28;20098;-71
2022/02/22 05:29:19;;;;;;;6.53;2.27;;;;;;;;;;5055332;28;20080;-71
2022/02/22 05:31:45;;;;;;;1.95;1.40;;;;;;;;;;5055318;28;20083;-70
2022/02/22 05:34:12;;;;;;;3.70;1.55;;;;;;;;;;5056658;28;20519;-70
2022/02/22 05:36:45;;;;;;;3.57;2.03;;;;;;;;;;5055734;28;20769;-70
2022/02/22 05:39:11;;;;;;;4.07;2.08;;;;;;;;;;5055793;28;20518;-70
2022/02/22 05:41:37;;;;;;;4.93;1.90;;;;;;;;;;5055300;28;20048;-71
2022/02/22 05:44:05;;;;;;;4.95;1.80;;;;;;;;;;5036862;28;20397;-71
2022/02/22 05:46:31;;;;;;;3.22;2.00;;;;;;;;;;5059586;28;20037;-71
2022/02/22 05:48:58;;;;;;;1.92;1.25;;;;;;;;;;5057045;28;20053;-71
2022/02/22 05:51:25;;;;;;;3.97;2.03;;;;;;;;;;5058610;28;20132;-71
2022/02/22 05:53:52;;;;;;;2.58;1.60;;;;;;;;;;5057993;28;20568;-70
2022/02/22 05:56:19;;;;;;;4.53;1.95;;;;;;;;;;5058763;28;20076;-71
2022/02/22 05:58:52;;;;;;;3.87;1.80;;;;;;;;;;5056563;28;20510;-71
2022/02/22 06:01:18;;;;;;;3.15;1.77;;;;;;;;;;5058143;28;20140;-71
2022/02/22 06:03:44;;;;;;;5.90;2.27;;;;;;;;;;5059732;28;20087;-71
2022/02/22 06:06:18;;;;;;;3.20;1.70;;;;;;;;;;5040021;28;20386;-70
2022/02/22 06:08:44;;;;;;;2.58;1.42;;;;;;;;;;5061124;28;20136;-71
2022/02/22 06:11:11;;;;;;;2.03;1.10;;;;;;;;;;5061172;28;20139;-71
2022/02/22 06:13:50;;;;;;;2.10;1.48;;;;;;;;;;5056858;28;20049;-71
2022/02/22 06:16:18;;;;;;;4.23;1.73;;;;;;;;;;5058369;28;21834;-70
2022/02/22 06:18:51;;;;;;;3.90;1.73;;;;;;;;;;5041505;28;20805;-71
2022/02/22 06:21:19;;;;;;;3.43;1.63;;;;;;;;;;5057895;28;20112;-70
2022/02/22 06:23:46;;;;;;;3.40;1.45;;;;;;;;;;5058508;28;20080;-70
2022/02/22 06:26:20;;;;;;;2.50;1.60;;;;;;;;;;5057656;28;20416;-70
2022/02/22 06:28:47;;;;;;;2.85;1.38;;;;;;;;;;5057471;28;21464;-71
2022/02/22 06:31:14;;;;;;;2.80;1.38;;;;;;;;;;5039350;28;20135;-72
2022/02/22 06:33:42;;;;;;;3.33;1.67;;;;;;;;;;5056663;28;20124;-71
2022/02/22 06:36:09;;;;;;;3.83;1.70;;;;;;;;;;5059406;28;20044;-72
2022/02/22 06:38:35;;;;;;;3.40;1.50;;;;;;;;;;5057103;28;20139;-71
2022/02/22 06:41:05;;;;;;;2.30;1.50;;;;;;;;;;5057607;28;20044;-71
2022/02/22 06:43:31;;;;;;;7.37;1.70;;;;;;;;;;5058511;28;20486;-70
2022/02/22 06:45:58;;;;;;;1.90;1.23;;;;;;;;;;5061325;28;20301;-71
2022/02/22 06:48:27;;;;;;;4.57;1.70;;;;;;;;;;5058612;28;20076;-71
2022/02/22 06:50:53;;;;;;;6.07;2.22;;;;;;;;;;5057644;28;20532;-71
2022/02/22 06:53:19;;;;;;;6.00;2.07;;;;;;;;;;5058485;28;20132;-71
2022/02/22 06:55:48;;;;;;;1.97;1.53;;;;;;;;;;5057302;28;20576;-71
2022/02/22 06:58:14;;;;;;;3.78;1.48;;;;;;;;;;5040048;28;20056;-71
2022/02/22 07:00:43;;;;;;;2.50;1.60;;;;;;;;;;5057696;28;20187;-71
2022/02/22 07:03:16;;;;;;;3.43;1.63;;;;;;;;;;5057500;28;20694;-72
2022/02/22 07:05:43;;;;;;;7.28;2.17;;;;;;;;;;5055627;28;20150;-71
2022/02/22 07:08:09;;;;;;;2.53;1.70;;;;;;;;;;5058363;28;20087;-71
2022/02/22 07:10:43;;;;;;;3.40;1.90;;;;;;;;;;5056957;28;20052;-71
2022/02/22 07:13:10;;;;;;;4.68;1.63;;;;;;;;;;5055812;28;20047;-71
2022/02/22 07:15:37;;;;;;;3.88;1.90;;;;;;;;;;5057075;28;20496;-71
2022/02/22 07:18:06;;;;;;;3.73;1.70;;;;;;;;;;5059727;28;20076;-70
2022/02/22 07:20:35;;;;;;;6.10;1.83;;;;;;;;;;5058431;28;20045;-71
2022/02/22 07:23:02;;;;;;;3.92;1.70;;;;;;;;;;5055374;28;20114;-71
2022/02/22 07:25:29;;;;;;;2.78;1.70;;;;;;;;;;5061261;28;20171;-71
2022/02/22 07:27:57;;;;;;;3.85;2.08;;;;;;;;;;5056523;28;20087;-72
2022/02/22 07:30:24;;;;;;;4.80;1.70;;;;;;;;;;5056594;28;20110;-70
2022/02/22 07:32:58;;;;;;;4.57;1.73;;;;;;;;;;5056390;28;20048;-71
2022/02/22 07:35:24;;;;;;;;;;;;;;;;;;5057619;28;20050;-71
2022/02/22 07:37:52;;;;;;;2.63;1.52;;;;;;;;;;5057205;28;20860;-71
2022/02/22 07:40:25;;;;;;;3.25;2.03;;;;;;;;;;5056317;28;20072;-71
2022/02/22 07:42:53;;;;;;;3.67;1.90;;;;;;;;;;5058561;28;20063;-70
2022/02/22 07:45:19;;;;;;;5.68;1.90;;;;;;;;;;5058063;28;20084;-71
2022/02/22 07:47:46;;;;;;;4.35;1.67;;;;;;;;;;5059071;28;20063;-71
2022/02/22 07:50:13;;;;;;;6.28;2.13;;;;;;;;;;5058590;28;20135;-71
2022/02/22 07:52:39;;;;;;;3.10;1.85;;;;;;;;;;5055481;28;20063;-72
2022/02/22 07:55:07;;;;;;;2.13;1.33;;;;;;;;;;5058325;28;20500;-71
2022/02/22 07:57:37;;;;;;;7.15;1.95;;;;;;;;;;5056459;28;20135;-72
2022/02/22 08:00:05;;;;;;;4.53;1.87;;;;;;;;;;5055888;28;20135;-71
2022/02/22 08:02:32;;;;;;;2.60;1.70;;;;;;;;;;5038075;28;20503;-71
2022/02/22 08:04:58;;;;;;;3.77;1.70;;;;;;;;;;5056018;28;20236;-71
2022/02/22 08:07:26;;;;;;;3.55;1.70;;;;;;;;;;5056823;28;20106;-71
2022/02/22 08:09:54;;;;;;;5.85;1.80;;;;;;;;;;5058474;28;20150;-72
2022/02/22 08:12:20;;;;;;;1.77;1.40;;;;;;;;;;5056937;28;20135;-69
2022/02/22 08:14:49;;;;;;;2.92;1.75;;;;;;;;;;5057715;28;20064;-69
2022/02/22 08:17:22;;;;;;;4.57;1.60;;;;;;;;;;5059704;28;20077;-69
2022/02/22 08:19:50;;;;;;;3.92;1.85;;;;;;;;;;5056915;28;20071;-69
2022/02/22 08:22:16;;;;;;;2.88;1.45;;;;;;;;;;5061455;28;20045;-69
2022/02/22 08:24:46;;;;;;;3.78;2.00;;;;;;;;;;5054750;28;20079;-69
2022/02/22 08:27:14;;;;;;;4.60;2.00;;;;;;;;;;5058934;28;20044;-69
2022/02/22 08:29:41;;;;;;;4.93;1.40;;;;;;;;;;5055744;28;20496;-69
2022/02/22 08:32:14;;;;;;;3.00;1.73;;;;;;;;;;5056308;28;20052;-69
2022/02/22 08:34:40;;;;;;;2.90;1.67;;;;;;;;;;5054741;28;20059;-69
2022/02/22 08:37:15;;;;;;;3.60;2.00;;;;;;;;;;5056520;28;20306;-70
2022/02/22 08:39:49;;;;;;;4.53;1.33;;;;;;;;;;5054678;28;20080;-69
2022/02/22 08:42:15;;;;;;;1.70;1.10;;;;;;;;;;5056009;28;20055;-69
2022/02/22 08:44:42;;;;;;;2.93;1.60;;;;;;;;;;5060065;28;20355;-69
2022/02/22 08:47:10;;;;;;;3.53;2.13;;;;;;;;;;5057135;28;20049;-69
2022/02/22 08:49:36;;;;;;;3.63;1.90;;;;;;;;;;5055259;28;20173;-68
2022/02/22 08:52:03;;;;;;;2.37;1.67;;;;;;;;;;5058707;28;20047;-69
2022/02/22 08:54:47;;;;;;;2.03;1.58;;;;;;;;;;5056313;28;20055;-69
2022/02/22 08:57:13;;;;;;;3.05;1.42;;;;;;;;;;5056373;28;20143;-69
2022/02/22 08:59:47;;;;;;;1.67;1.30;;;;;;;;;;5057488;28;20140;-69
2022/02/22 09:02:13;;;;;;;2.53;1.48;;;;;;;;;;5059073;28;20052;-70
2022/02/22 09:04:40;;;;;;;1.90;1.15;;;;;;;;;;5058230;28;20480;-69
2022/02/22 09:07:13;;;;;;;3.95;1.48;;;;;;;;;;5060789;28;20048;-69
2022/02/22 09:09:39;;;;;;;2.20;1.57;;;;;;;;;;5056527;28;20493;-69
2022/02/22 09:12:06;;;;;;;2.15;1.30;;;;;;;;;;5056311;28;20048;-69
2022/02/22 09:14:34;;;;;;;1.15;1.00;;;;;;;;;;5060420;28;20106;-69
2022/02/22 09:17:00;;;;;;;1.60;1.23;;;;;;;;;;5057003;28;20059;-70
2022/02/22 09:19:27;;;;;;;1.67;1.10;;;;;;;;;;5058839;28;20060;-68
2022/02/22 09:22:00;;;;;;;2.33;1.42;;;;;;;;;;5056468;28;20279;-70
2022/02/22 09:24:27;;;;;;;1.73;0.80;;;;;;;;;;5059130;28;20054;-69
2022/02/22 09:26:54;;;;;;;1.10;1.00;;;;;;;;;;5058657;28;20515;-69
2022/02/22 09:29:28;;;;;;;1.48;1.00;;;;;;;;;;5062049;28;20048;-69
2022/02/22 09:31:54;;;;;;;2.47;1.10;;;;;;;;;;5061203;28;20051;-69
2022/02/22 09:34:22;;;;;;;2.28;1.17;;;;;;;;;;5058215;28;20053;-69
2022/02/22 09:36:57;;;;;;;2.15;1.10;;;;;;;;;;5062581;28;20515;-69
2022/02/22 09:39:23;;;;;;;2.17;1.13;;;;;;;;;;5061088;28;20056;-69
2022/02/22 09:41:50;;;;;;;0.80;0.80;;;;;;;;;;5061015;28;20047;-69
2022/02/22 09:44:23;;;;;;;1.58;0.93;;;;;;;;;;5058538;28;20053;-69
2022/02/22 09:46:50;;;;;;;1.77;1.10;;;;;;;;;;5061230;28;20048;-69
2022/02/22 09:49:17;;;;;;;1.10;0.75;;;;;;;;;;5059052;28;20044;-69
2022/02/22 09:51:47;;;;;;;1.42;0.95;;;;;;;;;;5064425;28;20052;-69
2022/02/22 09:54:15;;;;;;;2.65;1.05;;;;;;;;;;5061176;28;20049;-69
2022/02/22 09:56:43;;;;;;;1.42;1.08;;;;;;;;;;5061077;28;20061;-69
2022/02/22 09:59:10;;;;;;;1.83;1.08;;;;;;;;;;5061791;28;20048;-69
2022/02/22 10:01:45;;;;;;;1.92;1.30;;;;;;;;;;5061691;28;20055;-70
2022/02/22 10:04:12;;;;;;;1.63;0.90;;;;;;;;;;5059800;28;20567;-70
2022/02/22 10:06:39;;;;;;;1.40;1.10;;;;;;;;;;5065619;28;20051;-69
2022/02/22 10:09:13;;;;;;;1.73;1.10;;;;;;;;;;5060404;28;20052;-69
2022/02/22 10:11:47;;;;;;;1.30;1.15;;;;;;;;;;5058931;28;20072;-69
2022/02/22 10:14:24;;;;;;;1.00;0.85;;;;;;;;;;5061632;28;20049;-69
2022/02/22 10:16:53;;;;;;;0.65;0.65;;;;;;;;;;5061530;28;20045;-69
2022/02/22 10:19:27;;;;;;;2.50;1.10;;;;;;;;;;5061839;28;20053;-70
2022/02/22 10:21:57;;;;;;;1.95;1.20;;;;;;;;;;5057440;28;20131;-70
2022/02/22 10:24:29;;;;;;;1.88;1.00;;;;;;;;;;5057435;28;20519;-69
2022/02/22 10:27:14;;;;;;;3.28;1.30;;;;;;;;;;5062059;28;20462;-70
2022/02/22 10:29:40;;;;;;;2.35;1.67;;;;;;;;;;5060074;28;20742;-69
2022/02/22 10:32:12;;;;;;;3.53;1.20;;;;;;;;;;5063017;28;20048;-69
2022/02/22 10:34:38;;;;;;;;;;;;;;;;;;5064505;28;20124;-70
2022/02/22 10:37:05;;;;;;;3.17;1.40;;;;;;;;;;5062430;28;19995;-69
2022/02/22 10:39:33;;;;;;;;;;;;;;;;;;5060663;28;20088;-70
2022/02/22 10:41:59;;;;;;;1.63;1.15;;;;;;;;;;5061658;28;19925;-69
2022/02/22 10:44:34;;;;;;;1.77;1.08;;;;;;;;;;5057453;28;20049;-69
2022/02/22 10:47:07;;;;;;;3.20;1.30;;;;;;;;;;5066080;28;20048;-69
2022/02/22 10:49:34;;;;;;;2.83;1.27;;;;;;;;;;5058787;28;20551;-69
2022/02/22 10:52:05;;;;;;;2.40;1.27;;;;;;;;;;5059815;28;20128;-69
2022/02/22 10:54:33;;;;;;;1.83;1.15;;;;;;;;;;5060857;28;20049;-70
2022/02/22 10:57:01;;;;;;;1.83;1.20;;;;;;;;;;5058617;28;20048;-69
2022/02/22 10:59:31;;;;;;;1.58;1.02;;;;;;;;;;5055589;28;20097;-69
2022/02/22 11:02:04;;;;;;;3.20;1.27;;;;;;;;;;5056126;28;20080;-69
2022/02/22 11:04:34;;;;;;;2.00;1.30;;;;;;;;;;5038857;28;20194;-69
2022/02/22 11:07:02;;;;;;;1.90;1.10;;;;;;;;;;5058908;28;20097;-69
2022/02/22 11:09:40;;;;;;;2.08;1.20;;;;;;;;;;5057655;28;20126;-69
2022/02/22 11:12:12;;;;;;;1.65;1.15;;;;;;;;;;5056933;28;20095;-69
2022/02/22 11:14:45;;;;;;;1.90;1.50;;;;;;;;;;5057570;28;20476;-69
2022/02/22 11:17:16;;;;;;;3.40;1.20;;;;;;;;;;5056024;28;20067;-69
2022/02/22 11:19:45;;;;;;;4.13;1.60;;;;;;;;;;5057794;28;20055;-70
2022/02/22 11:22:19;;;;;;;2.35;1.17;;;;;;;;;;5059163;28;20063;-70
2022/02/22 11:24:48;;;;;;;2.17;1.20;;;;;;;;;;5059601;28;20468;-68
2022/02/22 11:27:29;;;;;;;2.92;1.70;;;;;;;;;;5061295;28;20220;-70
2022/02/22 11:30:07;;;;;;;3.65;1.48;;;;;;;;;;5060491;28;20053;-70
2022/02/22 11:32:38;;;;;;;2.60;1.40;;;;;;;;;;5061059;28;20114;-70
2022/02/22 11:35:12;;;;;;;1.20;1.10;;;;;;;;;;5047291;28;20056;-70
2022/02/22 11:37:48;;;;;;;2.38;1.10;;;;;;;;;;5058980;28;20088;-70
2022/02/22 11:40:30;;;;;;;2.88;1.50;;;;;;;;;;5057009;28;20095;-69
2022/02/22 11:43:05;;;;;;;0.85;0.75;;;;;;;;;;5061702;28;20197;-69
2022/02/22 11:45:31;;;;;;;1.20;1.10;;;;;;;;;;5039927;28;20081;-70
2022/02/22 11:48:13;;;;;;;1.58;1.13;;;;;;;;;;5057166;28;20451;-70
2022/02/22 11:50:40;;;;;;;1.95;1.08;;;;;;;;;;5060268;28;20461;-70
2022/02/22 11:53:12;;;;;;;1.40;1.10;;;;;;;;;;5059410;28;20132;-69
2022/02/22 11:55:40;;;;;;;1.63;1.10;;;;;;;;;;5053946;28;20053;-70
2022/02/22 11:58:16;;;;;;;1.70;1.20;;;;;;;;;;5060027;28;20072;-69
2022/02/22 12:00:42;;;;;;;2.15;0.90;;;;;;;;;;5060669;28;20087;-70
2022/02/22 12:03:10;;;;;;;;;;;;;;;;;;5062232;28;20052;-70
2022/02/22 12:05:39;;;;;;;2.80;1.25;;;;;;;;;;5057223;28;19982;-69
2022/02/22 12:08:07;;;;;;;1.20;1.05;;;;;;;;;;5058970;28;20135;-70
2022/02/22 12:10:43;;;;;;;1.50;1.02;;;;;;;;;;5042000;28;20173;-70
2022/02/22 12:13:11;;;;;;;3.60;1.00;;;;;;;;;;5059465;28;20075;-70
2022/02/22 12:15:41;;;;;;;3.15;1.02;;;;;;;;;;5060006;28;20084;-70
2022/02/22 12:18:12;;;;;;;2.58;1.20;;;;;;;;;;5055425;28;21121;-71
2022/02/22 12:20:41;;;;;;;1.15;0.90;;;;;;;;;;5055226;28;20048;-70
2022/02/22 12:23:07;;;;;;;5.18;1.13;;;;;;;;;;5055464;28;21032;-69
2022/02/22 12:25:33;;;;;;;1.08;0.75;;;;;;;;;;5055645;28;20080;-70
2022/02/22 12:28:07;;;;;;;1.10;0.90;;;;;;;;;;5057202;28;20072;-70
2022/02/22 12:30:35;;;;;;;4.60;1.25;;;;;;;;;;5059888;28;20157;-70
2022/02/22 12:33:01;;;;;;;;;;;;;;;;;;5057484;28;20563;-70
2022/02/22 12:35:35;;;;;;;1.85;0.85;;;;;;;;;;5058439;28;20019;-70
2022/02/22 12:38:14;;;;;;;3.50;1.25;;;;;;;;;;5056238;28;20584;-70
2022/02/22 12:40:42;;;;;;;3.65;1.17;;;;;;;;;;5058115;28;20121;-70
2022/02/22 12:43:29;;;;;;;2.80;1.00;;;;;;;;;;5058656;28;20063;-70
2022/02/22 12:45:56;;;;;;;0.68;0.68;;;;;;;;;;5058623;28;20081;-70
2022/02/22 12:48:22;;;;;;;1.08;1.00;;;;;;;;;;5059444;28;20131;-70
2022/02/22 12:50:55;;;;;;;2.10;1.10;;;;;;;;;;5054000;28;20562;-70
2022/02/22 12:53:31;;;;;;;1.90;1.10;;;;;;;;;;5041897;28;20048;-70
2022/02/22 12:55:57;;;;;;;1.27;1.08;;;;;;;;;;5057112;28;20072;-70
2022/02/22 12:58:33;;;;;;;1.48;1.00;;;;;;;;;;5056332;28;20516;-70
2022/02/22 13:01:11;;;;;;;3.13;1.08;;;;;;;;;;5060826;28;20575;-70
2022/02/22 13:03:42;;;;;;;1.60;1.00;;;;;;;;;;5057713;28;20044;-69
2022/02/22 13:06:15;;;;;;;2.72;0.90;;;;;;;;;;5062120;28;20136;-70
2022/02/22 13:08:48;;;;;;;1.75;0.80;;;;;;;;;;5043697;28;20079;-70
2022/02/22 13:11:14;;;;;;;2.03;0.80;;;;;;;;;;5060789;28;20107;-70
2022/02/22 13:13:54;;;;;;;1.20;1.00;;;;;;;;;;5059151;28;20136;-70
2022/02/22 13:16:20;;;;;;;1.85;1.10;;;;;;;;;;5063875;28;20089;-70
2022/02/22 13:18:58;;;;;;;1.00;0.90;;;;;;;;;;5063003;28;20076;-70
2022/02/22 13:21:27;;;;;;;1.50;1.00;;;;;;;;;;5058526;28;20080;-70
2022/02/22 13:23:58;;;;;;;2.17;1.20;;;;;;;;;;5062293;28;20136;-70
2022/02/22 13:26:34;;;;;;;1.85;1.25;;;;;;;;;;5058303;28;20126;-70
2022/02/22 13:29:26;;;;;;;2.90;1.27;;;;;;;;;;5058136;28;20037;-69
2022/02/22 13:32:03;;;;;;;2.03;1.35;;;;;;;;;;5058167;28;20115;-70
2022/02/22 13:34:40;;;;;;;2.53;1.30;;;;;;;;;;5058264;28;20072;-70
2022/02/22 13:37:09;;;;;;;1.67;1.13;;;;;;;;;;5058848;28;20124;-70
2022/02/22 13:39:36;;;;;;;1.77;1.27;;;;;;;;;;5059818;28;20084;-70
2022/02/22 13:42:03;;;;;;;3.00;1.20;;;;;;;;;;5057932;28;20044;-70
2022/02/22 13:44:34;;;;;;;1.85;1.20;;;;;;;;;;5058400;28;20140;-70
2022/02/22 13:47:04;;;;;;;2.67;1.30;;;;;;;;;;5058308;28;20172;-70
2022/02/22 13:49:40;;;;;;;2.45;1.13;;;;;;;;;;5058952;28;20132;-70
2022/02/22 13:52:09;;;;;;;3.90;1.30;;;;;;;;;;5058267;28;20122;-70
2022/02/22 13:54:36;;;;;;;1.30;1.00;;;;;;;;;;5056518;28;20899;-70
2022/02/22 13:57:09;;;;;;;1.83;0.98;;;;;;;;;;5060695;28;20048;-70
2022/02/22 13:59:37;;;;;;;1.92;1.02;;;;;;;;;;5064852;28;20080;-70
2022/02/22 14:02:07;;;;;;;1.63;1.13;;;;;;;;;;5058980;28;21846;-70
2022/02/22 14:04:37;;;;;;;3.25;1.40;;;;;;;;;;5057572;28;20049;-70
2022/02/22 14:07:06;;;;;;;3.17;1.10;;;;;;;;;;5058329;28;20526;-70
2022/02/22 14:09:33;;;;;;;1.35;1.23;;;;;;;;;;5058248;28;20072;-70
2022/02/22 14:12:01;;;;;;;4.55;1.55;;;;;;;;;;5059349;28;20440;-70
2022/02/22 14:14:28;;;;;;;1.50;1.10;;;;;;;;;;5061156;28;20082;-70
2022/02/22 14:16:54;;;;;;;3.90;1.08;;;;;;;;;;5058502;28;20486;-69
2022/02/22 14:19:21;;;;;;;1.73;1.37;;;;;;;;;;5058602;28;20143;-70
2022/02/22 14:21:56;;;;;;;2.65;1.15;;;;;;;;;;5061054;28;20044;-70
2022/02/22 14:24:23;;;;;;;2.03;1.33;;;;;;;;;;5058160;28;20080;-70
2022/02/22 14:26:49;;;;;;;2.25;1.65;;;;;;;;;;5058933;28;20131;-70
2022/02/22 14:29:23;;;;;;;2.35;1.20;;;;;;;;;;5058435;28;20102;-70
2022/02/22 14:31:49;;;;;;;2.35;1.35;;;;;;;;;;5057527;28;20044;-70
2022/02/22 14:34:16;;;;;;;2.70;1.00;;;;;;;;;;5057058;28;20496;-70
2022/02/22 14:36:43;;;;;;;1.67;1.00;;;;;;;;;;5057581;28;21566;-70
2022/02/22 14:39:10;;;;;;;1.95;1.17;;;;;;;;;;5060266;28;20646;-70
2022/02/22 14:41:37;;;;;;;1.85;1.30;;;;;;;;;;5059461;28;20084;-70
2022/02/22 14:44:07;;;;;;;2.15;1.08;;;;;;;;;;5057815;28;20052;-70
2022/02/22 14:46:34;;;;;;;2.50;1.38;;;;;;;;;;5057662;28;20139;-70
2022/02/22 14:49:01;;;;;;;1.10;1.00;;;;;;;;;;5056810;28;20072;-70
2022/02/22 14:51:27;;;;;;;3.30;1.58;;;;;;;;;;5057009;28;20143;-70
2022/02/22 14:53:54;;;;;;;2.80;1.33;;;;;;;;;;5057300;28;20137;-70
2022/02/22 14:56:21;;;;;;;3.33;1.40;;;;;;;;;;5055516;28;20044;-70